Time;durP1;ratioP1;P1;durP2;ratioP2;P2;SDS_P1;SDS_P2;PMS_P1;PMS_P2;Temp;Humidity;BMP_temperature;BMP_pressure;BME280_temperature;BME280_humidity;BME280_pressure;Samples;Min_cycle;Max_cycle;Signal;HPM_P1;HPM_P2
2023/12/27 00:01:44;;;;;;;6.30;2.65;;;;;;;;;;6061275;23;20044;-89
2023/12/27 00:04:11;;;;;;;5.68;1.92;;;;;;;;;;6056389;23;20026;-88
2023/12/27 00:06:38;;;;;;;4.60;2.08;;;;;;;;;;6058756;23;20019;-88
2023/12/27 00:09:07;;;;;;;4.25;2.13;;;;;;;;;;6059650;23;20023;-88
2023/12/27 00:11:35;;;;;;;10.05;3.78;;;;;;;;;;6061217;23;20030;-88
2023/12/27 00:14:02;;;;;;;12.25;3.90;;;;;;;;;;6058310;23;20090;-89
2023/12/27 00:16:30;;;;;;;10.07;3.55;;;;;;;;;;6083310;23;20023;-89
2023/12/27 00:18:58;;;;;;;10.05;3.00;;;;;;;;;;6057773;23;20026;-89
2023/12/27 00:21:26;;;;;;;;;;;;;;;;;;6062278;23;20554;-88
2023/12/27 00:23:53;;;;;;;6.43;3.10;;;;;;;;;;6083860;23;19920;-88
2023/12/27 00:26:20;;;;;;;8.57;3.00;;;;;;;;;;6059544;23;20274;-89
2023/12/27 00:28:47;;;;;;;9.63;3.17;;;;;;;;;;6060538;23;20045;-88
2023/12/27 00:31:16;;;;;;;13.85;4.03;;;;;;;;;;6081831;23;20286;-89
2023/12/27 00:33:44;;;;;;;9.43;3.58;;;;;;;;;;6083385;23;20018;-89
2023/12/27 00:36:12;;;;;;;14.27;4.57;;;;;;;;;;6055476;23;20034;-89
2023/12/27 00:38:40;;;;;;;11.67;6.13;;;;;;;;;;6060290;23;20026;-89
2023/12/27 00:41:08;;;;;;;13.60;5.18;;;;;;;;;;6058911;23;20262;-88
2023/12/27 00:43:36;;;;;;;12.07;4.63;;;;;;;;;;6061142;23;20018;-89
2023/12/27 00:46:06;;;;;;;13.48;5.32;;;;;;;;;;6059371;23;20041;-89
2023/12/27 00:48:33;;;;;;;13.73;5.57;;;;;;;;;;6058587;23;20050;-89
2023/12/27 00:51:02;;;;;;;14.57;6.07;;;;;;;;;;6082146;23;20046;-89
2023/12/27 00:53:29;;;;;;;14.27;6.53;;;;;;;;;;6059974;23;20101;-89
2023/12/27 00:55:57;;;;;;;16.63;6.68;;;;;;;;;;6056463;23;20053;-89
2023/12/27 00:58:25;;;;;;;12.52;6.10;;;;;;;;;;6061975;23;20081;-88
2023/12/27 01:00:52;;;;;;;;;;;;;;;;;;6084487;23;20074;-89
2023/12/27 01:03:20;;;;;;;11.50;5.22;;;;;;;;;;6059069;23;19921;-88
2023/12/27 01:05:48;;;;;;;9.10;4.65;;;;;;;;;;6060695;23;20022;-89
2023/12/27 01:08:14;;;;;;;;;;;;;;;;;;6060981;23;20074;-89
2023/12/27 01:10:42;;;;;;;8.13;3.65;;;;;;;;;;6061727;23;19940;-89
2023/12/27 01:13:10;;;;;;;10.02;3.20;;;;;;;;;;6084292;23;20015;-89
2023/12/27 01:15:39;;;;;;;9.52;3.35;;;;;;;;;;6060799;23;20073;-88
2023/12/27 01:18:08;;;;;;;9.30;3.33;;;;;;;;;;6061556;23;20022;-89
2023/12/27 01:20:34;;;;;;;;;;;;;;;;;;6086452;23;20097;-89
2023/12/27 01:23:04;;;;;;;4.88;2.72;;;;;;;;;;6060142;23;20227;-89
2023/12/27 01:25:31;;;;;;;6.88;2.63;;;;;;;;;;6063089;23;20029;-89
2023/12/27 01:27:58;;;;;;;6.63;2.10;;;;;;;;;;6059946;23;20018;-89
2023/12/27 01:30:27;;;;;;;6.70;3.20;;;;;;;;;;6061810;23;20018;-89
2023/12/27 01:32:54;;;;;;;2.90;1.90;;;;;;;;;;6061064;23;20022;-89
2023/12/27 01:35:22;;;;;;;6.75;1.90;;;;;;;;;;6060917;23;20077;-89
2023/12/27 01:37:50;;;;;;;;;;;;;;;;;;6063048;23;20073;-89
2023/12/27 01:40:21;;;;;;;7.03;2.30;;;;;;;;;;6084211;23;19917;-89
2023/12/27 01:42:48;;;;;;;7.65;2.58;;;;;;;;;;6062767;23;20033;-88
2023/12/27 01:45:17;;;;;;;3.92;2.00;;;;;;;;;;6058057;23;20029;-89
2023/12/27 01:47:44;;;;;;;6.50;2.33;;;;;;;;;;6085061;23;20069;-89
2023/12/27 01:50:11;;;;;;;2.53;1.70;;;;;;;;;;6059920;23;20436;-88
2023/12/27 01:52:39;;;;;;;4.20;2.00;;;;;;;;;;6062081;23;20093;-88
2023/12/27 01:55:09;;;;;;;3.73;2.10;;;;;;;;;;6059469;23;20026;-88
2023/12/27 01:57:38;;;;;;;7.05;2.22;;;;;;;;;;6009706;23;20318;-88
2023/12/27 02:00:07;;;;;;;6.15;2.00;;;;;;;;;;6008668;23;20098;-88
2023/12/27 02:02:34;;;;;;;5.97;2.28;;;;;;;;;;6006847;23;20439;-88
2023/12/27 02:05:02;;;;;;;7.57;2.70;;;;;;;;;;6006829;23;20373;-88
2023/12/27 02:07:30;;;;;;;6.20;2.40;;;;;;;;;;6010106;23;20026;-88
2023/12/27 02:09:57;;;;;;;5.43;2.88;;;;;;;;;;6006777;23;20093;-88
2023/12/27 02:12:29;;;;;;;7.30;2.53;;;;;;;;;;6008741;23;20026;-88
2023/12/27 02:14:57;;;;;;;6.55;2.50;;;;;;;;;;6005750;23;20026;-88
2023/12/27 02:17:26;;;;;;;5.60;2.03;;;;;;;;;;6009463;23;20439;-88
2023/12/27 02:19:53;;;;;;;6.07;2.58;;;;;;;;;;6008754;23;20098;-88
2023/12/27 02:22:22;;;;;;;7.55;2.63;;;;;;;;;;6005909;23;20026;-87
2023/12/27 02:24:55;;;;;;;8.85;2.90;;;;;;;;;;6009672;23;20015;-87
2023/12/27 02:27:26;;;;;;;5.25;2.92;;;;;;;;;;6010611;23;20022;-88
2023/12/27 02:29:53;;;;;;;;;;;;;;;;;;6032946;23;20360;-88
2023/12/27 02:32:23;;;;;;;11.40;3.85;;;;;;;;;;6009130;23;20252;-88
2023/12/27 02:34:51;;;;;;;5.18;2.30;;;;;;;;;;6009635;23;20030;-88
2023/12/27 02:37:18;;;;;;;5.97;2.47;;;;;;;;;;6006432;23;20019;-88
2023/12/27 02:39:45;;;;;;;6.78;2.58;;;;;;;;;;6008416;23;20022;-87
2023/12/27 02:42:13;;;;;;;7.88;3.05;;;;;;;;;;6006927;23;20601;-88
2023/12/27 02:44:41;;;;;;;4.72;3.10;;;;;;;;;;6007561;23;20015;-88
2023/12/27 02:47:08;;;;;;;7.10;3.00;;;;;;;;;;6030763;23;20027;-87
2023/12/27 02:49:36;;;;;;;7.07;3.13;;;;;;;;;;5984092;23;20021;-88
2023/12/27 02:52:04;;;;;;;2.92;2.60;;;;;;;;;;6007105;23;20631;-87
2023/12/27 02:54:31;;;;;;;6.95;2.67;;;;;;;;;;6007581;23;20029;-87
2023/12/27 02:56:59;;;;;;;5.43;2.70;;;;;;;;;;6044271;23;20348;-88
2023/12/27 02:59:25;;;;;;;;;;;;;;;;;;6061468;23;20359;-88
2023/12/27 03:01:56;;;;;;;6.10;3.13;;;;;;;;;;6084296;23;19917;-88
2023/12/27 03:04:24;;;;;;;4.22;2.50;;;;;;;;;;6085148;23;20041;-88
2023/12/27 03:06:51;;;;;;;6.43;3.05;;;;;;;;;;6061098;23;20034;-88
2023/12/27 03:09:18;;;;;;;9.98;3.03;;;;;;;;;;6058008;23;20077;-87
2023/12/27 03:11:47;;;;;;;7.90;2.78;;;;;;;;;;6058773;23;20418;-87
2023/12/27 03:14:14;;;;;;;9.48;3.00;;;;;;;;;;6058992;23;20022;-87
2023/12/27 03:16:42;;;;;;;8.07;3.10;;;;;;;;;;6059241;23;20509;-87
2023/12/27 03:19:09;;;;;;;3.87;2.83;;;;;;;;;;6080587;23;20026;-87
2023/12/27 03:21:37;;;;;;;6.82;2.83;;;;;;;;;;6060798;23;20098;-87
2023/12/27 03:24:05;;;;;;;5.80;2.88;;;;;;;;;;6059379;23;20023;-87
2023/12/27 03:26:34;;;;;;;9.00;3.40;;;;;;;;;;6061498;23;20022;-88
2023/12/27 03:29:00;;;;;;;;;;;;;;;;;;6058831;23;20335;-87
2023/12/27 03:31:29;;;;;;;7.47;3.30;;;;;;;;;;6060794;23;19913;-87
2023/12/27 03:33:59;;;;;;;6.43;3.10;;;;;;;;;;6059013;23;20018;-87
2023/12/27 03:36:28;;;;;;;7.78;3.03;;;;;;;;;;6060272;23;20054;-88
2023/12/27 03:38:55;;;;;;;5.50;2.58;;;;;;;;;;6057483;23;20030;-88
2023/12/27 03:41:24;;;;;;;5.13;2.80;;;;;;;;;;6060558;23;20037;-87
2023/12/27 03:43:58;;;;;;;10.20;3.78;;;;;;;;;;6061776;23;20098;-87
2023/12/27 03:46:28;;;;;;;4.80;3.05;;;;;;;;;;6060857;23;20054;-87
2023/12/27 03:48:57;;;;;;;8.93;3.33;;;;;;;;;;6058262;23;20017;-88
2023/12/27 03:51:25;;;;;;;4.90;3.30;;;;;;;;;;6061189;23;20450;-87
2023/12/27 03:53:53;;;;;;;7.82;3.50;;;;;;;;;;6060864;23;20109;-87
2023/12/27 03:56:19;;;;;;;7.45;3.10;;;;;;;;;;6059806;23;20037;-87
2023/12/27 03:58:46;;;;;;;8.80;3.42;;;;;;;;;;6062561;23;20061;-87
2023/12/27 04:01:14;;;;;;;6.35;3.15;;;;;;;;;;6059351;23;20026;-87
2023/12/27 04:03:42;;;;;;;7.20;3.53;;;;;;;;;;6086128;23;20054;-87
2023/12/27 04:06:09;;;;;;;;;;;;;;;;;;6060526;23;20101;-87
2023/12/27 04:08:37;;;;;;;5.57;3.90;;;;;;;;;;6062724;23;20685;-86
2023/12/27 04:11:04;;;;;;;6.43;3.33;;;;;;;;;;6060963;23;20025;-86
2023/12/27 04:13:33;;;;;;;10.48;4.15;;;;;;;;;;6062371;23;20110;-87
2023/12/27 04:16:00;;;;;;;4.85;3.83;;;;;;;;;;6060575;23;20018;-87
2023/12/27 04:18:28;;;;;;;4.35;3.53;;;;;;;;;;6075557;23;20023;-88
2023/12/27 04:20:55;;;;;;;12.10;3.90;;;;;;;;;;6083030;23;20444;-87
2023/12/27 04:23:25;;;;;;;6.60;3.60;;;;;;;;;;6061748;23;20057;-87
2023/12/27 04:25:51;;;;;;;6.50;3.45;;;;;;;;;;6062692;23;20029;-87
2023/12/27 04:28:19;;;;;;;5.43;3.47;;;;;;;;;;6059663;23;20018;-87
2023/12/27 04:30:47;;;;;;;5.03;3.67;;;;;;;;;;6061905;23;20022;-87
2023/12/27 04:33:15;;;;;;;9.20;3.25;;;;;;;;;;6084198;23;20685;-86
2023/12/27 04:35:43;;;;;;;4.65;3.58;;;;;;;;;;6062695;23;20522;-86
2023/12/27 04:38:13;;;;;;;5.40;3.25;;;;;;;;;;6059194;23;20018;-86
2023/12/27 04:40:47;;;;;;;5.88;3.08;;;;;;;;;;6061630;23;20100;-86
2023/12/27 04:43:14;;;;;;;3.72;3.15;;;;;;;;;;6062735;23;20030;-86
2023/12/27 04:45:40;;;;;;;6.65;3.17;;;;;;;;;;6064446;23;20033;-87
2023/12/27 04:48:07;;;;;;;4.38;3.10;;;;;;;;;;6061671;23;20010;-86
2023/12/27 04:50:34;;;;;;;3.88;3.05;;;;;;;;;;6060618;23;20018;-86
2023/12/27 04:53:02;;;;;;;7.07;3.28;;;;;;;;;;6058790;23;20022;-86
2023/12/27 04:55:28;;;;;;;4.05;3.17;;;;;;;;;;6085822;23;20030;-87
2023/12/27 04:57:56;;;;;;;4.60;2.90;;;;;;;;;;6085829;23;20356;-87
2023/12/27 05:00:24;;;;;;;4.97;3.03;;;;;;;;;;6062391;23;20432;-86
2023/12/27 05:02:51;;;;;;;4.18;2.70;;;;;;;;;;6063225;23;20510;-86
2023/12/27 05:05:20;;;;;;;4.47;2.85;;;;;;;;;;6084585;23;20018;-87
2023/12/27 05:07:47;;;;;;;;;;;;;;;;;;6064751;23;20069;-87
2023/12/27 05:10:33;;;;;;;5.05;2.83;;;;;;;;;;6086686;23;20008;-87
2023/12/27 05:13:00;;;;;;;7.13;3.20;;;;;;;;;;6061306;23;20042;-86
2023/12/27 05:15:29;;;;;;;7.57;3.97;;;;;;;;;;6062784;23;20038;-87
2023/12/27 05:17:58;;;;;;;7.53;3.42;;;;;;;;;;6062073;23;20023;-87
2023/12/27 05:20:25;;;;;;;5.13;3.17;;;;;;;;;;6087408;23;20027;-87
2023/12/27 05:22:54;;;;;;;6.68;3.38;;;;;;;;;;6058729;23;20399;-86
2023/12/27 05:25:20;;;;;;;;;;;;;;;;;;6064419;23;20129;-87
2023/12/27 05:27:47;;;;;;;7.90;3.80;;;;;;;;;;6088135;23;20315;-87
2023/12/27 05:30:16;;;;;;;7.43;3.40;;;;;;;;;;6060705;23;20025;-87
2023/12/27 05:32:45;;;;;;;6.78;3.78;;;;;;;;;;6087084;23;20422;-87
2023/12/27 05:35:14;;;;;;;5.65;3.17;;;;;;;;;;6061802;23;20451;-87
2023/12/27 05:37:42;;;;;;;4.93;3.70;;;;;;;;;;6063951;23;20165;-87
2023/12/27 05:40:12;;;;;;;6.03;3.95;;;;;;;;;;6060803;23;20397;-87
2023/12/27 05:42:39;;;;;;;;;;;;;;;;;;6087321;23;20074;-87
2023/12/27 05:45:07;;;;;;;7.25;4.53;;;;;;;;;;6060922;23;19917;-86
2023/12/27 05:47:35;;;;;;;8.38;4.20;;;;;;;;;;6057723;23;20014;-87
2023/12/27 05:50:02;;;;;;;;;;;;;;;;;;6061656;23;20010;-87
2023/12/27 05:52:29;;;;;;;10.90;4.93;;;;;;;;;;6063517;23;19917;-87
2023/12/27 05:54:57;;;;;;;11.25;4.07;;;;;;;;;;6060336;23;20097;-87
2023/12/27 05:57:24;;;;;;;8.00;4.18;;;;;;;;;;6062208;23;20029;-87
2023/12/27 05:59:51;;;;;;;8.77;3.92;;;;;;;;;;6062726;23;20447;-87
2023/12/27 06:02:19;;;;;;;6.43;3.95;;;;;;;;;;6060180;23;20018;-87
2023/12/27 06:04:47;;;;;;;7.78;3.65;;;;;;;;;;6063244;23;20023;-87
2023/12/27 06:07:16;;;;;;;7.80;4.22;;;;;;;;;;6061674;23;20022;-87
2023/12/27 06:09:45;;;;;;;9.70;3.58;;;;;;;;;;6063363;23;20021;-87
2023/12/27 06:12:11;;;;;;;8.65;3.58;;;;;;;;;;6061583;23;20026;-87
2023/12/27 06:14:40;;;;;;;5.60;3.90;;;;;;;;;;6086606;23;20010;-87
2023/12/27 06:17:07;;;;;;;8.60;3.90;;;;;;;;;;6060529;23;20033;-87
2023/12/27 06:19:40;;;;;;;11.55;4.15;;;;;;;;;;6063740;23;20347;-87
2023/12/27 06:22:08;;;;;;;11.75;3.90;;;;;;;;;;6060504;23;20481;-87
2023/12/27 06:24:37;;;;;;;6.15;4.45;;;;;;;;;;6063217;23;20451;-88
2023/12/27 06:27:06;;;;;;;11.68;4.53;;;;;;;;;;6062061;23;20019;-87
2023/12/27 06:29:33;;;;;;;10.43;4.82;;;;;;;;;;6058132;23;20021;-87
2023/12/27 06:32:04;;;;;;;6.60;4.25;;;;;;;;;;6062267;23;20014;-87
2023/12/27 06:34:32;;;;;;;6.43;4.50;;;;;;;;;;6063515;23;20025;-87
2023/12/27 06:37:00;;;;;;;6.60;4.38;;;;;;;;;;6083887;23;20057;-87
2023/12/27 06:39:29;;;;;;;9.60;5.03;;;;;;;;;;6061604;23;20015;-87
2023/12/27 06:41:57;;;;;;;7.10;5.00;;;;;;;;;;6061095;23;20014;-88
2023/12/27 06:44:24;;;;;;;;;;;;;;;;;;6064193;23;20101;-87
2023/12/27 06:46:52;;;;;;;8.27;5.45;;;;;;;;;;6067077;23;19928;-87
2023/12/27 06:49:20;;;;;;;13.52;5.38;;;;;;;;;;6078769;23;20018;-87
2023/12/27 06:51:48;;;;;;;9.10;4.60;;;;;;;;;;6078882;23;20307;-87
2023/12/27 06:54:30;;;;;;;9.23;5.32;;;;;;;;;;6099216;23;20085;-87
2023/12/27 06:56:59;;;;;;;9.15;5.20;;;;;;;;;;6087296;23;20026;-88
2023/12/27 06:59:27;;;;;;;9.38;5.60;;;;;;;;;;6072394;23;20026;-87
2023/12/27 07:01:56;;;;;;;5.75;4.97;;;;;;;;;;6067211;23;20097;-87
2023/12/27 07:04:23;;;;;;;9.85;5.32;;;;;;;;;;6062988;23;20334;-87
2023/12/27 07:06:50;;;;;;;9.65;5.38;;;;;;;;;;6086418;23;20033;-87
2023/12/27 07:09:20;;;;;;;7.95;5.53;;;;;;;;;;6061038;23;20093;-87
2023/12/27 07:11:49;;;;;;;8.23;5.90;;;;;;;;;;6063706;23;20915;-87
2023/12/27 07:14:19;;;;;;;7.55;5.32;;;;;;;;;;6061988;23;20097;-87
2023/12/27 07:16:46;;;;;;;8.63;5.22;;;;;;;;;;6064154;23;20329;-87
2023/12/27 07:19:15;;;;;;;8.60;5.35;;;;;;;;;;6059344;23;20125;-87
2023/12/27 07:21:42;;;;;;;;;;;;;;;;;;6062973;23;20028;-87
2023/12/27 07:24:09;;;;;;;10.73;6.05;;;;;;;;;;6084005;23;20427;-87
2023/12/27 07:26:36;;;;;;;9.32;6.70;;;;;;;;;;6061565;23;20123;-87
2023/12/27 07:29:04;;;;;;;12.82;6.60;;;;;;;;;;6059792;23;20334;-87
2023/12/27 07:31:41;;;;;;;12.55;6.53;;;;;;;;;;6064030;23;20328;-88
2023/12/27 07:34:10;;;;;;;10.50;6.85;;;;;;;;;;6060445;23;20454;-89
2023/12/27 07:36:40;;;;;;;11.80;7.35;;;;;;;;;;6062136;23;20512;-88
2023/12/27 07:39:09;;;;;;;11.63;7.32;;;;;;;;;;6058888;23;20061;-88
2023/12/27 07:41:37;;;;;;;10.35;7.10;;;;;;;;;;6061088;23;20018;-89
2023/12/27 07:44:04;;;;;;;11.65;7.90;;;;;;;;;;6055927;23;20022;-91
2023/12/27 07:46:33;;;;;;;12.07;8.27;;;;;;;;;;6083076;23;20026;-88
2023/12/27 07:49:00;;;;;;;12.35;7.78;;;;;;;;;;6059613;23;20019;-91
2023/12/27 07:51:29;;;;;;;12.15;7.82;;;;;;;;;;6061988;23;20037;-89
2023/12/27 07:53:57;;;;;;;15.32;7.88;;;;;;;;;;6056801;23;20018;-89
2023/12/27 07:56:23;;;;;;;13.75;8.63;;;;;;;;;;6060304;23;20026;-89
2023/12/27 07:58:50;;;;;;;15.02;8.50;;;;;;;;;;6060424;23;20515;-87
2023/12/27 08:01:17;;;;;;;12.38;7.97;;;;;;;;;;6050628;23;20022;-86
2023/12/27 08:03:45;;;;;;;12.93;8.18;;;;;;;;;;6080396;23;20101;-87
2023/12/27 08:06:13;;;;;;;15.40;8.27;;;;;;;;;;6056882;23;20410;-86
2023/12/27 08:08:40;;;;;;;;;;;;;;;;;;6060827;23;20073;-86
2023/12/27 08:11:09;;;;;;;12.77;8.25;;;;;;;;;;6079313;23;19992;-87
2023/12/27 08:13:37;;;;;;;16.23;7.72;;;;;;;;;;6060184;23;20015;-86
2023/12/27 08:16:05;;;;;;;18.95;8.25;;;;;;;;;;6055061;23;20029;-87
2023/12/27 08:18:35;;;;;;;13.50;7.65;;;;;;;;;;6057384;23;20026;-88
2023/12/27 08:21:04;;;;;;;15.30;8.13;;;;;;;;;;6059433;23;20121;-87
2023/12/27 08:23:37;;;;;;;16.30;7.50;;;;;;;;;;6061769;23;20094;-87
2023/12/27 08:26:06;;;;;;;17.38;8.25;;;;;;;;;;6082335;23;20321;-87
2023/12/27 08:28:34;;;;;;;14.70;7.57;;;;;;;;;;6061899;23;20088;-87
2023/12/27 08:31:04;;;;;;;14.90;7.60;;;;;;;;;;6060216;23;20047;-87
2023/12/27 08:33:36;;;;;;;11.48;7.15;;;;;;;;;;6038754;23;20020;-88
2023/12/27 08:36:05;;;;;;;15.50;7.65;;;;;;;;;;6055423;23;20029;-88
2023/12/27 08:38:32;;;;;;;;;;;;;;;;;;6060137;23;20026;-87
2023/12/27 08:41:02;;;;;;;14.80;7.30;;;;;;;;;;6082545;23;19914;-87
2023/12/27 08:43:35;;;;;;;22.70;6.68;;;;;;;;;;6061093;23;20026;-87
2023/12/27 08:46:10;;;;;;;13.25;7.20;;;;;;;;;;6058936;23;20030;-86
2023/12/27 08:48:38;;;;;;;13.55;6.60;;;;;;;;;;6060684;23;20062;-87
2023/12/27 08:51:06;;;;;;;10.18;6.35;;;;;;;;;;6057882;23;20399;-87
2023/12/27 08:53:33;;;;;;;14.02;7.05;;;;;;;;;;6059390;23;20038;-86
2023/12/27 08:56:00;;;;;;;11.70;6.10;;;;;;;;;;6056558;23;20026;-86
2023/12/27 08:58:27;;;;;;;11.63;6.55;;;;;;;;;;6059073;23;20069;-86
2023/12/27 09:00:54;;;;;;;12.98;6.03;;;;;;;;;;6058902;23;20029;-86
2023/12/27 09:03:22;;;;;;;10.53;5.67;;;;;;;;;;6059050;23;20034;-88
2023/12/27 09:05:49;;;;;;;10.47;6.53;;;;;;;;;;6051462;23;20086;-87
2023/12/27 09:08:17;;;;;;;11.68;5.97;;;;;;;;;;6059535;23;20014;-88
2023/12/27 09:10:44;;;;;;;9.53;5.60;;;;;;;;;;6056725;23;20440;-86
2023/12/27 09:13:12;;;;;;;15.32;6.00;;;;;;;;;;6058168;23;20297;-89
2023/12/27 09:15:40;;;;;;;11.13;5.68;;;;;;;;;;6059319;23;20033;-90
2023/12/27 09:18:08;;;;;;;14.98;5.82;;;;;;;;;;6055121;23;20022;-86
2023/12/27 09:20:36;;;;;;;8.10;5.13;;;;;;;;;;6058554;23;20118;-87
2023/12/27 09:23:02;;;;;;;11.52;5.80;;;;;;;;;;6058923;23;20097;-88
2023/12/27 09:25:29;;;;;;;12.55;6.10;;;;;;;;;;6057659;23;20022;-88
2023/12/27 09:27:57;;;;;;;11.93;4.95;;;;;;;;;;6058719;23;20101;-87
2023/12/27 09:30:24;;;;;;;9.27;5.22;;;;;;;;;;6059988;23;20542;-87
2023/12/27 09:32:52;;;;;;;11.95;6.07;;;;;;;;;;6084367;23;20021;-87
2023/12/27 09:35:24;;;;;;;;;;;;;;;;;;6058552;23;20028;-88
2023/12/27 09:37:52;;;;;;;8.98;5.90;;;;;;;;;;6062002;23;19917;-87
2023/12/27 09:40:19;;;;;;;15.73;6.00;;;;;;;;;;6059048;23;20057;-87
2023/12/27 09:42:48;;;;;;;9.25;6.32;;;;;;;;;;6059629;23;20534;-87
2023/12/27 09:45:20;;;;;;;12.30;6.05;;;;;;;;;;6080031;23;20060;-87
2023/12/27 09:47:49;;;;;;;12.73;6.55;;;;;;;;;;6062048;23;20441;-91
2023/12/27 09:50:20;;;;;;;15.45;6.93;;;;;;;;;;6060528;23;20018;-91
2023/12/27 09:52:50;;;;;;;10.00;6.70;;;;;;;;;;6061601;23;20023;-90
2023/12/27 09:55:16;;;;;;;13.85;6.78;;;;;;;;;;6059599;23;20021;-91
2023/12/27 09:58:08;;;;;;;15.52;7.25;;;;;;;;;;6056795;23;20014;-95
2023/12/27 10:00:46;;;;;;;16.58;6.78;;;;;;;;;;6042705;23;20016;-91
2023/12/27 10:05:59;;;;;;;13.82;6.15;;;;;;;;;;6082811;23;20030;-84
2023/12/27 10:08:37;;;;;;;15.88;7.13;;;;;;;;;;6061302;23;20071;-86
2023/12/27 10:43:57;;;;;;;;;;;;;;;;;;;;;
2023/12/27 10:50:23;;;;;;;;;;;;;;;;;;;;;
2023/12/27 11:53:57;;;;;;;18.60;8.20;;;;;;;;;;5984382;23;20101;-83
2023/12/27 12:06:53;;;;;;;13.80;8.73;;;;;;;;;;6053586;23;20588;-84
2023/12/27 12:59:06;;;;;;;19.73;10.57;;;;;;;;;;6065962;23;20026;-84
2023/12/27 15:26:21;;;;;;;19.98;10.75;;;;;;;;;;5765224;24;20027;-84
2023/12/27 16:03:05;;;;;;;15.68;6.80;;;;;;;;;;6028697;23;20013;-84
2023/12/27 16:06:22;;;;;;;15.90;7.32;;;;;;;;;;5876596;24;20105;-85
2023/12/27 18:22:59;;;;;;;;;;;;;;;;;;;;;
